sensor_id;sensor_type;location;lat;lon;timestamp;pressure;altitude;pressure_sealevel;temperature;humidity
70976;BME280;58635;51.198;6.010;2023-12-29T00:01:10;100802.72;;;14.89;52.65
70976;BME280;58635;51.198;6.010;2023-12-29T00:03:37;100796.72;;;14.88;52.57
70976;BME280;58635;51.198;6.010;2023-12-29T00:06:03;100804.31;;;14.90;52.44
70976;BME280;58635;51.198;6.010;2023-12-29T00:08:30;100807.13;;;14.88;52.43
70976;BME280;58635;51.198;6.010;2023-12-29T00:10:57;100804.91;;;14.92;52.48
70976;BME280;58635;51.198;6.010;2023-12-29T00:13:23;100803.09;;;14.93;52.34
70976;BME280;58635;51.198;6.010;2023-12-29T00:15:55;100798.69;;;14.93;52.44
70976;BME280;58635;51.198;6.010;2023-12-29T00:18:22;100806.28;;;14.95;52.37
70976;BME280;58635;51.198;6.010;2023-12-29T00:20:49;100811.47;;;14.95;52.42
70976;BME280;58635;51.198;6.010;2023-12-29T00:23:15;100810.69;;;14.94;52.45
70976;BME280;58635;51.198;6.010;2023-12-29T00:25:41;100806.84;;;14.97;52.43
70976;BME280;58635;51.198;6.010;2023-12-29T00:28:08;100794.59;;;14.97;52.54
70976;BME280;58635;51.198;6.010;2023-12-29T00:30:38;100804.81;;;14.99;52.39
70976;BME280;58635;51.198;6.010;2023-12-29T00:33:04;100786.56;;;14.99;52.41
70976;BME280;58635;51.198;6.010;2023-12-29T00:35:31;100788.94;;;15.00;52.43
70976;BME280;58635;51.198;6.010;2023-12-29T00:37:57;100777.16;;;14.98;52.61
70976;BME280;58635;51.198;6.010;2023-12-29T00:40:23;100782.59;;;14.96;52.53
70976;BME280;58635;51.198;6.010;2023-12-29T00:42:50;100768.78;;;14.96;52.45
70976;BME280;58635;51.198;6.010;2023-12-29T00:45:16;100763.00;;;14.94;52.52
70976;BME280;58635;51.198;6.010;2023-12-29T00:47:42;100764.59;;;14.95;52.56
70976;BME280;58635;51.198;6.010;2023-12-29T00:50:09;100759.41;;;14.95;52.47
70976;BME280;58635;51.198;6.010;2023-12-29T00:52:35;100766.84;;;14.91;52.32
70976;BME280;58635;51.198;6.010;2023-12-29T00:55:02;100754.59;;;14.91;52.42
70976;BME280;58635;51.198;6.010;2023-12-29T00:57:29;100749.06;;;14.88;52.64
70976;BME280;58635;51.198;6.010;2023-12-29T00:59:55;100734.78;;;14.90;52.66
70976;BME280;58635;51.198;6.010;2023-12-29T01:02:22;100730.81;;;14.88;52.72
70976;BME280;58635;51.198;6.010;2023-12-29T01:04:48;100734.78;;;14.90;52.66
70976;BME280;58635;51.198;6.010;2023-12-29T01:07:15;100734.00;;;14.90;52.79
70976;BME280;58635;51.198;6.010;2023-12-29T01:09:41;100735.03;;;14.89;52.80
70976;BME280;58635;51.198;6.010;2023-12-29T01:12:08;100719.84;;;14.86;52.75
70976;BME280;58635;51.198;6.010;2023-12-29T01:14:35;100723.25;;;14.86;52.78
70976;BME280;58635;51.198;6.010;2023-12-29T01:17:01;100732.06;;;14.85;52.81
70976;BME280;58635;51.198;6.010;2023-12-29T01:19:28;100719.06;;;14.85;52.85
70976;BME280;58635;51.198;6.010;2023-12-29T01:21:54;100731.84;;;14.87;52.97
70976;BME280;58635;51.198;6.010;2023-12-29T01:24:20;100727.66;;;14.86;52.75
70976;BME280;58635;51.198;6.010;2023-12-29T01:26:47;100732.88;;;14.86;52.93
70976;BME280;58635;51.198;6.010;2023-12-29T01:29:13;100728.44;;;14.86;52.90
70976;BME280;58635;51.198;6.010;2023-12-29T01:31:40;100719.28;;;14.84;52.89
70976;BME280;58635;51.198;6.010;2023-12-29T01:34:06;100709.44;;;14.86;53.00
70976;BME280;58635;51.198;6.010;2023-12-29T01:36:32;100712.81;;;14.86;53.05
70976;BME280;58635;51.198;6.010;2023-12-29T01:38:59;100732.88;;;14.86;53.02
70976;BME280;58635;51.198;6.010;2023-12-29T01:41:25;100722.69;;;14.84;53.29
70976;BME280;58635;51.198;6.010;2023-12-29T01:46:20;100743.72;;;14.83;53.97
70976;BME280;58635;51.198;6.010;2023-12-29T01:48:47;100744.16;;;14.80;54.32
70976;BME280;58635;51.198;6.010;2023-12-29T01:51:14;100742.22;;;14.75;54.49
70976;BME280;58635;51.198;6.010;2023-12-29T01:53:41;100750.25;;;14.74;54.74
70976;BME280;58635;51.198;6.010;2023-12-29T01:56:08;100746.88;;;14.73;55.01
70976;BME280;58635;51.198;6.010;2023-12-29T01:58:34;100737.47;;;14.72;54.96
70976;BME280;58635;51.198;6.010;2023-12-29T02:01:01;100754.56;;;14.68;55.18
70976;BME280;58635;51.198;6.010;2023-12-29T02:03:28;100746.53;;;14.70;55.13
70976;BME280;58635;51.198;6.010;2023-12-29T02:05:55;100735.72;;;14.66;55.23
70976;BME280;58635;51.198;6.010;2023-12-29T02:08:22;100736.34;;;14.68;55.22
70976;BME280;58635;51.198;6.010;2023-12-29T02:10:48;100735.72;;;14.66;55.18
70976;BME280;58635;51.198;6.010;2023-12-29T02:13:15;100741.16;;;14.65;55.24
70976;BME280;58635;51.198;6.010;2023-12-29T02:15:42;100742.53;;;14.67;55.14
70976;BME280;58635;51.198;6.010;2023-12-29T02:18:12;100746.94;;;14.67;55.14
70976;BME280;58635;51.198;6.010;2023-12-29T02:20:41;100738.56;;;14.65;55.27
70976;BME280;58635;51.198;6.010;2023-12-29T02:23:08;100744.56;;;14.65;55.37
70976;BME280;58635;51.198;6.010;2023-12-29T02:25:35;100741.16;;;14.65;55.13
70976;BME280;58635;51.198;6.010;2023-12-29T02:30:32;100729.50;;;14.67;55.14
70976;BME280;58635;51.198;6.010;2023-12-29T02:33:06;100721.50;;;14.69;55.07
70976;BME280;58635;51.198;6.010;2023-12-29T02:35:38;100709.28;;;14.69;55.03
70976;BME280;58635;51.198;6.010;2023-12-29T02:38:05;100709.06;;;14.71;55.13
70976;BME280;58635;51.198;6.010;2023-12-29T02:40:32;100713.81;;;14.74;54.90
70976;BME280;58635;51.198;6.010;2023-12-29T02:42:58;100717.44;;;14.73;54.93
70976;BME280;58635;51.198;6.010;2023-12-29T02:45:25;100712.56;;;14.76;54.83
70976;BME280;58635;51.198;6.010;2023-12-29T02:47:51;100708.16;;;14.77;54.72
70976;BME280;58635;51.198;6.010;2023-12-29T02:50:18;100713.13;;;14.78;54.68
70976;BME280;58635;51.198;6.010;2023-12-29T02:52:44;100710.75;;;14.77;54.59
70976;BME280;58635;51.198;6.010;2023-12-29T02:55:10;100712.34;;;14.78;54.57
70976;BME280;58635;51.198;6.010;2023-12-29T02:57:35;100716.75;;;14.77;54.67
70976;BME280;58635;51.198;6.010;2023-12-29T03:00:03;100711.91;;;14.81;54.57
70976;BME280;58635;51.198;6.010;2023-12-29T03:02:30;100715.09;;;14.83;54.57
70976;BME280;58635;51.198;6.010;2023-12-29T03:04:56;100706.25;;;14.84;54.53
70976;BME280;58635;51.198;6.010;2023-12-29T03:07:22;100709.44;;;14.86;54.44
70976;BME280;58635;51.198;6.010;2023-12-29T03:09:49;100717.00;;;14.87;54.42
70976;BME280;58635;51.198;6.010;2023-12-29T03:12:15;100713.16;;;14.90;54.22
70976;BME280;58635;51.198;6.010;2023-12-29T03:14:41;100715.19;;;14.88;54.19
70976;BME280;58635;51.198;6.010;2023-12-29T03:17:08;100713.41;;;14.88;54.21
70976;BME280;58635;51.198;6.010;2023-12-29T03:19:34;100710.56;;;14.90;54.17
70976;BME280;58635;51.198;6.010;2023-12-29T03:22:01;100720.97;;;14.90;53.94
70976;BME280;58635;51.198;6.010;2023-12-29T03:24:29;100729.59;;;14.90;54.03
70976;BME280;58635;51.198;6.010;2023-12-29T03:26:55;100720.97;;;14.90;54.18
70976;BME280;58635;51.198;6.010;2023-12-29T03:29:21;100721.91;;;14.96;53.97
70976;BME280;58635;51.198;6.010;2023-12-29T03:31:48;100727.13;;;14.96;53.92
70976;BME280;58635;51.198;6.010;2023-12-29T03:34:14;100729.28;;;14.99;53.91
70976;BME280;58635;51.198;6.010;2023-12-29T03:36:41;100731.88;;;14.99;53.88
70976;BME280;58635;51.198;6.010;2023-12-29T03:39:07;100724.06;;;14.99;53.77
70976;BME280;58635;51.198;6.010;2023-12-29T03:41:33;100725.66;;;15.00;53.86
70976;BME280;58635;51.198;6.010;2023-12-29T03:44:00;100729.03;;;15.00;54.24
70976;BME280;58635;51.198;6.010;2023-12-29T03:46:26;100730.84;;;15.00;54.36
70976;BME280;58635;51.198;6.010;2023-12-29T03:48:52;100736.53;;;14.97;54.62
70976;BME280;58635;51.198;6.010;2023-12-29T03:51:19;100719.75;;;14.93;54.78
70976;BME280;58635;51.198;6.010;2023-12-29T03:53:46;100711.81;;;14.87;55.11
70976;BME280;58635;51.198;6.010;2023-12-29T03:56:15;100713.06;;;14.85;55.07
70976;BME280;58635;51.198;6.010;2023-12-29T03:58:46;100708.53;;;14.80;55.20
70976;BME280;58635;51.198;6.010;2023-12-29T04:01:16;100711.13;;;14.80;55.16
70976;BME280;58635;51.198;6.010;2023-12-29T04:03:43;100712.34;;;14.78;55.10
70976;BME280;58635;51.198;6.010;2023-12-29T04:06:10;100701.94;;;14.78;55.06
70976;BME280;58635;51.198;6.010;2023-12-29T04:08:37;100708.16;;;14.77;54.92
70976;BME280;58635;51.198;6.010;2023-12-29T04:11:04;100705.56;;;14.77;54.84
70976;BME280;58635;51.198;6.010;2023-12-29T04:13:31;100709.16;;;14.76;54.89
70976;BME280;58635;51.198;6.010;2023-12-29T04:15:57;100709.97;;;14.76;54.61
70976;BME280;58635;51.198;6.010;2023-12-29T04:18:24;100715.97;;;14.77;54.56
70976;BME280;58635;51.198;6.010;2023-12-29T04:20:50;100701.13;;;14.77;54.35
70976;BME280;58635;51.198;6.010;2023-12-29T04:23:16;100702.94;;;14.77;54.29
70976;BME280;58635;51.198;6.010;2023-12-29T04:25:43;100704.53;;;14.78;54.30
70976;BME280;58635;51.198;6.010;2023-12-29T04:28:09;100695.69;;;14.79;54.08
70976;BME280;58635;51.198;6.010;2023-12-29T04:30:36;100703.09;;;14.82;54.12
70976;BME280;58635;51.198;6.010;2023-12-29T04:33:02;100700.13;;;14.78;54.15
70976;BME280;58635;51.198;6.010;2023-12-29T04:35:29;100706.34;;;14.77;54.17
70976;BME280;58635;51.198;6.010;2023-12-29T04:37:55;100703.75;;;14.77;54.05
70976;BME280;58635;51.198;6.010;2023-12-29T04:40:21;100714.16;;;14.77;54.15
70976;BME280;58635;51.198;6.010;2023-12-29T04:42:48;100705.56;;;14.77;54.18
70976;BME280;58635;51.198;6.010;2023-12-29T04:45:14;100704.75;;;14.76;54.16
70976;BME280;58635;51.198;6.010;2023-12-29T04:47:40;100712.56;;;14.76;54.18
70976;BME280;58635;51.198;6.010;2023-12-29T04:50:07;100698.66;;;14.71;54.07
70976;BME280;58635;51.198;6.010;2023-12-29T04:52:34;100708.03;;;14.72;54.20
70976;BME280;58635;51.198;6.010;2023-12-29T04:55:00;100703.63;;;14.72;54.15
70976;BME280;58635;51.198;6.010;2023-12-29T04:57:26;100700.69;;;14.69;54.11
70976;BME280;58635;51.198;6.010;2023-12-29T04:59:53;100702.03;;;14.71;54.28
70976;BME280;58635;51.198;6.010;2023-12-29T05:02:19;100690.84;;;14.71;54.17
70976;BME280;58635;51.198;6.010;2023-12-29T05:04:46;100689.25;;;14.70;54.26
70976;BME280;58635;51.198;6.010;2023-12-29T05:07:12;100698.88;;;14.69;54.30
70976;BME280;58635;51.198;6.010;2023-12-29T05:09:39;100683.44;;;14.68;54.42
70976;BME280;58635;51.198;6.010;2023-12-29T05:12:05;100694.09;;;14.66;54.33
70976;BME280;58635;51.198;6.010;2023-12-29T05:14:31;100695.91;;;14.66;54.38
70976;BME280;58635;51.198;6.010;2023-12-29T05:16:58;100691.72;;;14.65;54.18
70976;BME280;58635;51.198;6.010;2023-12-29T05:19:24;100697.13;;;14.63;54.32
70976;BME280;58635;51.198;6.010;2023-12-29T05:21:50;100704.16;;;14.62;54.55
70976;BME280;58635;51.198;6.010;2023-12-29T05:24:18;100695.56;;;14.62;54.53
70976;BME280;58635;51.198;6.010;2023-12-29T05:26:44;100692.38;;;14.60;54.48
70976;BME280;58635;51.198;6.010;2023-12-29T05:29:10;100706.97;;;14.61;54.50
70976;BME280;58635;51.198;6.010;2023-12-29T05:31:37;100684.56;;;14.60;54.43
70976;BME280;58635;51.198;6.010;2023-12-29T05:34:03;100701.22;;;14.59;54.62
70976;BME280;58635;51.198;6.010;2023-12-29T05:36:29;100696.81;;;14.59;54.64
70976;BME280;58635;51.198;6.010;2023-12-29T05:38:56;100693.19;;;14.60;54.61
70976;BME280;58635;51.198;6.010;2023-12-29T05:41:22;100702.78;;;14.60;54.75
70976;BME280;58635;51.198;6.010;2023-12-29T05:43:48;100698.03;;;14.57;54.65
70976;BME280;58635;51.198;6.010;2023-12-29T05:46:15;100700.19;;;14.60;54.75
70976;BME280;58635;51.198;6.010;2023-12-29T05:48:41;100699.03;;;14.56;54.68
70976;BME280;58635;51.198;6.010;2023-12-29T05:51:13;100698.03;;;14.57;54.73
70976;BME280;58635;51.198;6.010;2023-12-29T05:53:39;100711.06;;;14.57;54.65
70976;BME280;58635;51.198;6.010;2023-12-29T05:56:06;100709.66;;;14.54;54.85
70976;BME280;58635;51.198;6.010;2023-12-29T05:58:33;100712.72;;;14.51;55.07
70976;BME280;58635;51.198;6.010;2023-12-29T06:00:59;100702.09;;;14.53;54.80
70976;BME280;58635;51.198;6.010;2023-12-29T06:03:26;100695.06;;;14.53;54.93
70976;BME280;58635;51.198;6.010;2023-12-29T06:05:53;100695.63;;;14.55;54.91
70976;BME280;58635;51.198;6.010;2023-12-29T06:08:19;100697.25;;;14.56;54.84
70976;BME280;58635;51.198;6.010;2023-12-29T06:10:44;100702.22;;;14.58;54.89
70976;BME280;58635;51.198;6.010;2023-12-29T06:13:11;100708.22;;;14.58;54.89
70976;BME280;58635;51.198;6.010;2023-12-29T06:15:37;100697.25;;;14.56;54.93
70976;BME280;58635;51.198;6.010;2023-12-29T06:18:04;100703.25;;;14.57;54.91
70976;BME280;58635;51.198;6.010;2023-12-29T06:20:31;100689.44;;;14.56;54.79
70976;BME280;58635;51.198;6.010;2023-12-29T06:22:57;100692.59;;;14.58;54.90
70976;BME280;58635;51.198;6.010;2023-12-29T06:25:23;100697.03;;;14.58;54.86
70976;BME280;58635;51.198;6.010;2023-12-29T06:27:50;100699.97;;;14.61;54.88
70976;BME280;58635;51.198;6.010;2023-12-29T06:30:17;100703.59;;;14.60;55.08
70976;BME280;58635;51.198;6.010;2023-12-29T06:32:43;100700.19;;;14.60;55.21
70976;BME280;58635;51.198;6.010;2023-12-29T06:35:10;100695.56;;;14.62;55.25
70976;BME280;58635;51.198;6.010;2023-12-29T06:37:37;100695.31;;;14.63;55.35
70976;BME280;58635;51.198;6.010;2023-12-29T06:40:06;100701.09;;;14.66;55.53
70976;BME280;58635;51.198;6.010;2023-12-29T06:42:32;100700.09;;;14.67;55.68
70976;BME280;58635;51.198;6.010;2023-12-29T06:44:59;100689.31;;;14.63;56.11
70976;BME280;58635;51.198;6.010;2023-12-29T06:47:25;100694.75;;;14.61;56.21
70976;BME280;58635;51.198;6.010;2023-12-29T06:49:52;100691.81;;;14.58;56.67
70976;BME280;58635;51.198;6.010;2023-12-29T06:52:18;100691.03;;;14.57;56.75
70976;BME280;58635;51.198;6.010;2023-12-29T06:54:44;100684.22;;;14.56;57.12
70976;BME280;58635;51.198;6.010;2023-12-29T06:57:11;100680.25;;;14.54;57.29
70976;BME280;58635;51.198;6.010;2023-12-29T06:59:40;100679.91;;;14.50;57.45
70976;BME280;58635;51.198;6.010;2023-12-29T07:02:07;100685.31;;;14.49;57.62
70976;BME280;58635;51.198;6.010;2023-12-29T07:04:33;100680.56;;;14.46;57.84
70976;BME280;58635;51.198;6.010;2023-12-29T07:07:00;100682.38;;;14.45;57.83
70976;BME280;58635;51.198;6.010;2023-12-29T07:09:27;100684.59;;;14.42;57.96
70976;BME280;58635;51.198;6.010;2023-12-29T07:11:54;100693.41;;;14.41;57.93
70976;BME280;58635;51.198;6.010;2023-12-29T07:14:20;100689.78;;;14.42;58.09
70976;BME280;58635;51.198;6.010;2023-12-29T07:16:46;100691.38;;;14.43;58.16
70976;BME280;58635;51.198;6.010;2023-12-29T07:19:13;100674.19;;;14.42;58.34
70976;BME280;58635;51.198;6.010;2023-12-29T07:21:39;100676.22;;;14.40;58.51
70976;BME280;58635;51.198;6.010;2023-12-29T07:24:06;100678.00;;;14.39;58.66
70976;BME280;58635;51.198;6.010;2023-12-29T07:26:33;100679.81;;;14.39;58.85
70976;BME280;58635;51.198;6.010;2023-12-29T07:29:00;100675.63;;;14.38;58.99
70976;BME280;58635;51.198;6.010;2023-12-29T07:31:26;100671.69;;;14.35;59.06
70976;BME280;58635;51.198;6.010;2023-12-29T07:33:53;100678.13;;;14.32;59.42
70976;BME280;58635;51.198;6.010;2023-12-29T07:36:19;100682.31;;;14.33;59.06
70976;BME280;58635;51.198;6.010;2023-12-29T07:38:45;100688.72;;;14.31;59.45
70976;BME280;58635;51.198;6.010;2023-12-29T07:41:12;100696.53;;;14.31;59.31
70976;BME280;58635;51.198;6.010;2023-12-29T07:43:38;100700.72;;;14.32;59.70
70976;BME280;58635;51.198;6.010;2023-12-29T07:46:05;100697.91;;;14.33;59.58
70976;BME280;58635;51.198;6.010;2023-12-29T07:48:31;100694.94;;;14.30;59.75
70976;BME280;58635;51.198;6.010;2023-12-29T07:51:05;100689.75;;;14.30;59.71
70976;BME280;58635;51.198;6.010;2023-12-29T07:53:32;100682.16;;;14.28;59.91
70976;BME280;58635;51.198;6.010;2023-12-29T07:55:58;100689.97;;;14.28;60.05
70976;BME280;58635;51.198;6.010;2023-12-29T07:58:24;100694.59;;;14.26;60.05
70976;BME280;58635;51.198;6.010;2023-12-29T08:00:51;100693.00;;;14.25;60.19
70976;BME280;58635;51.198;6.010;2023-12-29T08:03:17;100694.47;;;14.21;60.37
70976;BME280;58635;51.198;6.010;2023-12-29T08:05:43;100689.03;;;14.23;60.14
70976;BME280;58635;51.198;6.010;2023-12-29T08:08:12;100687.81;;;14.25;60.33
70976;BME280;58635;51.198;6.010;2023-12-29T08:10:38;100682.25;;;14.22;60.57
70976;BME280;58635;51.198;6.010;2023-12-29T08:13:04;100685.88;;;14.21;60.63
70976;BME280;58635;51.198;6.010;2023-12-29T08:15:31;100699.44;;;14.23;60.79
70976;BME280;58635;51.198;6.010;2023-12-29T08:17:57;100698.66;;;14.22;60.56
70976;BME280;58635;51.198;6.010;2023-12-29T08:20:23;100701.25;;;14.22;60.88
70976;BME280;58635;51.198;6.010;2023-12-29T08:22:50;100704.28;;;14.19;60.79
70976;BME280;58635;51.198;6.010;2023-12-29T08:25:17;100700.66;;;14.20;60.87
70976;BME280;58635;51.198;6.010;2023-12-29T08:27:43;100709.28;;;14.21;60.90
70976;BME280;58635;51.198;6.010;2023-12-29T08:30:10;100717.09;;;14.21;60.94
70976;BME280;58635;51.198;6.010;2023-12-29T08:32:36;100718.88;;;14.20;61.08
70976;BME280;58635;51.198;6.010;2023-12-29T08:35:02;100700.47;;;14.22;61.10
70976;BME280;58635;51.198;6.010;2023-12-29T08:37:29;100718.69;;;14.22;61.19
70976;BME280;58635;51.198;6.010;2023-12-29T08:39:55;100725.47;;;14.23;61.12
70976;BME280;58635;51.198;6.010;2023-12-29T08:42:21;100728.06;;;14.23;61.25
70976;BME280;58635;51.198;6.010;2023-12-29T08:44:48;100717.88;;;14.21;61.36
70976;BME280;58635;51.198;6.010;2023-12-29T08:47:14;100715.84;;;14.23;61.35
70976;BME280;58635;51.198;6.010;2023-12-29T08:49:40;100724.06;;;14.20;61.28
70976;BME280;58635;51.198;6.010;2023-12-29T08:52:07;100715.63;;;14.25;61.17
70976;BME280;58635;51.198;6.010;2023-12-29T08:54:35;100703.97;;;14.27;61.16
70976;BME280;58635;51.198;6.010;2023-12-29T08:57:03;100701.53;;;14.32;61.07
70976;BME280;58635;51.198;6.010;2023-12-29T08:59:30;100704.13;;;14.32;61.10
70976;BME280;58635;51.198;6.010;2023-12-29T09:01:56;100713.53;;;14.33;61.02
70976;BME280;58635;51.198;6.010;2023-12-29T09:04:22;100718.28;;;14.37;61.11
70976;BME280;58635;51.198;6.010;2023-12-29T09:06:49;100719.09;;;14.37;60.98
70976;BME280;58635;51.198;6.010;2023-12-29T09:09:15;100729.25;;;14.39;61.38
70976;BME280;58635;51.198;6.010;2023-12-29T09:11:42;100735.72;;;14.36;61.51
70976;BME280;58635;51.198;6.010;2023-12-29T09:14:08;100739.91;;;14.37;61.52
70976;BME280;58635;51.198;6.010;2023-12-29T09:16:35;100742.50;;;14.37;61.87
70976;BME280;58635;51.198;6.010;2023-12-29T09:19:02;100739.09;;;14.37;61.88
70976;BME280;58635;51.198;6.010;2023-12-29T09:21:29;100738.31;;;14.36;61.92
70976;BME280;58635;51.198;6.010;2023-12-29T09:23:55;100741.69;;;14.37;61.98
70976;BME280;58635;51.198;6.010;2023-12-29T09:26:21;100736.94;;;14.33;61.90
70976;BME280;58635;51.198;6.010;2023-12-29T09:28:48;100735.13;;;14.34;62.00
70976;BME280;58635;51.198;6.010;2023-12-29T09:31:14;100731.75;;;14.33;62.05
70976;BME280;58635;51.198;6.010;2023-12-29T09:33:40;100731.75;;;14.33;62.06
70976;BME280;58635;51.198;6.010;2023-12-29T09:36:07;100720.31;;;14.34;62.00
70976;BME280;58635;51.198;6.010;2023-12-29T09:38:33;100741.69;;;14.37;62.14
70976;BME280;58635;51.198;6.010;2023-12-29T09:41:04;100738.88;;;14.38;62.03
70976;BME280;58635;51.198;6.010;2023-12-29T09:43:32;100754.03;;;14.41;62.07
70976;BME280;58635;51.198;6.010;2023-12-29T09:45:58;100766.25;;;14.41;62.29
70976;BME280;58635;51.198;6.010;2023-12-29T09:48:27;100765.69;;;14.39;62.46
70976;BME280;58635;51.198;6.010;2023-12-29T09:50:54;100780.50;;;14.38;62.39
70976;BME280;58635;51.198;6.010;2023-12-29T09:53:21;100792.72;;;14.38;62.54
70976;BME280;58635;51.198;6.010;2023-12-29T09:55:48;100769.09;;;14.39;62.60
70976;BME280;58635;51.198;6.010;2023-12-29T09:58:16;100764.09;;;14.38;62.53
70976;BME280;58635;51.198;6.010;2023-12-29T10:00:47;100743.28;;;14.38;62.57
70976;BME280;58635;51.198;6.010;2023-12-29T10:03:15;100732.31;;;14.36;62.47
70976;BME280;58635;51.198;6.010;2023-12-29T10:05:43;100718.06;;;14.38;62.33
70976;BME280;58635;51.198;6.010;2023-12-29T10:08:10;100716.38;;;14.44;62.10
70976;BME280;58635;51.198;6.010;2023-12-29T10:10:39;100726.28;;;14.53;62.03
70976;BME280;58635;51.198;6.010;2023-12-29T10:13:09;100731.78;;;14.63;61.82
70976;BME280;58635;51.198;6.010;2023-12-29T10:15:42;100736.09;;;14.70;61.97
70976;BME280;58635;51.198;6.010;2023-12-29T10:18:42;100734.19;;;14.77;61.70
70976;BME280;58635;51.198;6.010;2023-12-29T10:24:03;100737.50;;;14.84;61.67
70976;BME280;58635;51.198;6.010;2023-12-29T10:26:29;100725.06;;;14.86;61.73
70976;BME280;58635;51.198;6.010;2023-12-29T10:28:56;100734.22;;;14.88;61.38
70976;BME280;58635;51.198;6.010;2023-12-29T10:31:23;100729.81;;;14.89;61.20
70976;BME280;58635;51.198;6.010;2023-12-29T10:33:51;100746.78;;;14.91;61.18
70976;BME280;58635;51.198;6.010;2023-12-29T10:36:17;100744.78;;;14.94;61.07
70976;BME280;58635;51.198;6.010;2023-12-29T10:38:44;100738.66;;;15.00;60.69
70976;BME280;58635;51.198;6.010;2023-12-29T10:43:39;100743.09;;;14.99;60.54
70976;BME280;58635;51.198;6.010;2023-12-29T10:46:07;100731.66;;;15.00;60.30
70976;BME280;58635;51.198;6.010;2023-12-29T10:48:34;100732.44;;;15.01;60.22
70976;BME280;58635;51.198;6.010;2023-12-29T10:51:04;100731.56;;;15.07;60.08
70976;BME280;58635;51.198;6.010;2023-12-29T10:53:32;100727.38;;;15.06;60.48
70976;BME280;58635;51.198;6.010;2023-12-29T10:55:59;100741.19;;;15.06;60.50
70976;BME280;58635;51.198;6.010;2023-12-29T10:58:26;100735.19;;;15.06;60.55
70976;BME280;58635;51.198;6.010;2023-12-29T11:00:55;100736.78;;;15.07;60.62
70976;BME280;58635;51.198;6.010;2023-12-29T11:03:22;100732.59;;;15.06;60.77
70976;BME280;58635;51.198;6.010;2023-12-29T11:05:59;100744.34;;;15.08;60.82
70976;BME280;58635;51.198;6.010;2023-12-29T11:08:29;100740.97;;;15.08;60.86
70976;BME280;58635;51.198;6.010;2023-12-29T11:10:54;100747.97;;;15.07;61.12
70976;BME280;58635;51.198;6.010;2023-12-29T11:13:22;100744.03;;;15.05;61.28
70976;BME280;58635;51.198;6.010;2023-12-29T11:15:48;100741.63;;;15.03;61.20
70976;BME280;58635;51.198;6.010;2023-12-29T11:18:16;100752.47;;;15.00;61.41
70976;BME280;58635;51.198;6.010;2023-12-29T11:20:44;100751.69;;;15.00;61.58
70976;BME280;58635;51.198;6.010;2023-12-29T11:23:11;100741.28;;;15.00;61.52
70976;BME280;58635;51.198;6.010;2023-12-29T11:25:39;100753.50;;;14.99;61.54
70976;BME280;58635;51.198;6.010;2023-12-29T11:28:09;100739.47;;;15.00;61.32
70976;BME280;58635;51.198;6.010;2023-12-29T11:30:36;100730.84;;;15.00;61.82
70976;BME280;58635;51.198;6.010;2023-12-29T11:33:10;100732.44;;;15.01;61.49
70976;BME280;58635;51.198;6.010;2023-12-29T11:35:44;100732.31;;;14.96;61.55
70976;BME280;58635;51.198;6.010;2023-12-29T11:38:23;100731.41;;;14.90;61.65
70976;BME280;58635;51.198;6.010;2023-12-29T11:41:12;100725.84;;;14.86;61.85
70976;BME280;58635;51.198;6.010;2023-12-29T11:43:39;100727.09;;;14.84;61.87
70976;BME280;58635;51.198;6.010;2023-12-29T11:46:06;100738.31;;;14.84;61.91
70976;BME280;58635;51.198;6.010;2023-12-29T11:48:55;100733.53;;;14.81;62.05
70976;BME280;58635;51.198;6.010;2023-12-29T11:53:55;100736.44;;;14.73;62.37
70976;BME280;58635;51.198;6.010;2023-12-29T11:56:22;100720.84;;;14.73;62.38
70976;BME280;58635;51.198;6.010;2023-12-29T11:58:49;100722.75;;;14.78;62.50
70976;BME280;58635;51.198;6.010;2023-12-29T12:01:34;100727.09;;;14.84;62.33
70976;BME280;58635;51.198;6.010;2023-12-29T12:04:01;100724.81;;;14.87;62.31
70976;BME280;58635;51.198;6.010;2023-12-29T12:06:37;100728.00;;;14.89;62.17
70976;BME280;58635;51.198;6.010;2023-12-29T12:09:21;100719.75;;;14.93;62.05
70976;BME280;58635;51.198;6.010;2023-12-29T12:11:48;100721.56;;;14.92;62.04
70976;BME280;58635;51.198;6.010;2023-12-29T12:17:10;100715.47;;;14.98;61.99
70976;BME280;58635;51.198;6.010;2023-12-29T12:19:37;100708.66;;;14.97;62.30
70976;BME280;58635;51.198;6.010;2023-12-29T12:22:06;100711.50;;;14.96;62.44
70976;BME280;58635;51.198;6.010;2023-12-29T12:24:33;100708.09;;;14.95;62.52
70976;BME280;58635;51.198;6.010;2023-12-29T12:27:01;100702.31;;;14.93;62.53
70976;BME280;58635;51.198;6.010;2023-12-29T12:29:28;100704.94;;;14.93;62.61
70976;BME280;58635;51.198;6.010;2023-12-29T12:31:56;100712.75;;;14.93;62.67
70976;BME280;58635;51.198;6.010;2023-12-29T12:34:22;100712.94;;;14.91;62.78
70976;BME280;58635;51.198;6.010;2023-12-29T12:36:50;100699.13;;;14.91;62.78
70976;BME280;58635;51.198;6.010;2023-12-29T12:39:17;100697.53;;;14.90;62.83
70976;BME280;58635;51.198;6.010;2023-12-29T12:41:45;100686.00;;;14.86;62.84
70976;BME280;58635;51.198;6.010;2023-12-29T12:44:13;100676.72;;;14.90;62.80
70976;BME280;58635;51.198;6.010;2023-12-29T12:46:50;100663.47;;;14.91;62.67
70976;BME280;58635;51.198;6.010;2023-12-29T12:49:19;100670.84;;;14.95;62.59
70976;BME280;58635;51.198;6.010;2023-12-29T12:51:46;100653.63;;;14.94;62.64
70976;BME280;58635;51.198;6.010;2023-12-29T12:54:15;100660.19;;;14.96;62.39
70976;BME280;58635;51.198;6.010;2023-12-29T12:56:44;100674.81;;;14.97;62.29
70976;BME280;58635;51.198;6.010;2023-12-29T12:59:11;100673.00;;;14.98;62.39
70976;BME280;58635;51.198;6.010;2023-12-29T13:01:38;100671.19;;;14.98;62.23
70976;BME280;58635;51.198;6.010;2023-12-29T13:04:05;100661.09;;;15.02;61.90
70976;BME280;58635;51.198;6.010;2023-12-29T13:06:33;100661.09;;;15.02;61.90